MSC Zebra — 9HA3367 — position and weather

sailwx.info

Track history (hours):
 
Tides and Currents Weather Stations Pressure Air Temp Water Temp Dewpoint Dewpoint Depression Visibility Wind Speed Wind Dir Waves Ship Positions

MSC Zebra

Last reported at 2018-Jul-18 10:26 UTC. Time now 2018-Jul-20 23:28 UTC.
Position N 09°37' W 080°01'.

Length 210 m; draft 8.3 m.

Type: Cargo ship. MMSI: 229481000.

Date/timePositionNaut miles runAvg speedWind from/ knotsBaromVisibWave heightAir tempDewpointWater temp
2018-Jul-18 10:26N 09°37' W 080°01'4 8.9
2018-Jul-18 09:57N 09°35' W 079°57'4 9.5
2018-Jul-18 09:30N 09°32' W 079°54'510.2
2018-Jul-18 09:00N 09°27' W 079°55'510.2
2018-Jul-18 08:30N 09°22' W 079°55'1 1.8
2018-Jul-18 08:00N 09°21' W 079°55'0 0.0
2018-Jul-18 07:29N 09°21' W 079°55'0 0.0
2018-Jul-18 06:59N 09°21' W 079°55'0 0.0
2018-Jul-18 06:29N 09°21' W 079°55'0 0.0
2018-Jul-18 05:59N 09°21' W 079°55'0 0.0
2018-Jul-18 05:29N 09°21' W 079°55'0 0.0
2018-Jul-18 04:59N 09°21' W 079°55'0 0.0
2018-Jul-18 04:29N 09°21' W 079°55'0 0.0
2018-Jul-18 03:59N 09°21' W 079°55'0 0.0
2018-Jul-18 03:29N 09°21' W 079°55'0 0.0
2018-Jul-18 02:59N 09°21' W 079°55'0 0.0
2018-Jul-18 02:29N 09°21' W 079°55'0 0.0
2018-Jul-18 01:59N 09°21' W 079°55'0 0.0
2018-Jul-18 01:29N 09°21' W 079°55'0 0.0
2018-Jul-18 00:59N 09°21' W 079°55'0 0.0
2018-Jul-18 00:29N 09°21' W 079°55'0 0.0
2018-Jul-17 23:59N 09°21' W 079°55'0 0.0
2018-Jul-17 23:29N 09°21' W 079°55'0 0.0
2018-Jul-17 22:59N 09°21' W 079°55'0 0.0
2018-Jul-17 22:29N 09°21' W 079°55'0 0.0
2018-Jul-17 21:59N 09°21' W 079°55'0 0.0
2018-Jul-17 21:29N 09°21' W 079°55'0 0.0
2018-Jul-17 20:59N 09°21' W 079°55'0 0.0
2018-Jul-17 20:29N 09°21' W 079°55'0 0.0
2018-Jul-17 19:59N 09°21' W 079°55'0 0.0
2018-Jul-17 19:29N 09°21' W 079°55'0 0.0
2018-Jul-17 18:59N 09°21' W 079°55'0 0.0
2018-Jul-17 18:29N 09°21' W 079°55'0 0.0
2018-Jul-17 17:59N 09°21' W 079°55'0 0.0
2018-Jul-17 17:29N 09°21' W 079°55'0 0.0
2018-Jul-17 16:59N 09°21' W 079°55'0 0.0
2018-Jul-17 16:29N 09°21' W 079°55'0 0.0
2018-Jul-17 15:59N 09°21' W 079°55'0 0.0
2018-Jul-17 15:29N 09°21' W 079°55'0 0.0
2018-Jul-17 14:59N 09°21' W 079°55'0 0.0
2018-Jul-17 14:29N 09°21' W 079°55'0 0.0
2018-Jul-17 13:59N 09°21' W 079°55'0 0.0
2018-Jul-17 13:29N 09°21' W 079°55'0 0.0
2018-Jul-17 12:59N 09°21' W 079°55'0 0.0
2018-Jul-17 12:29N 09°21' W 079°55'0 0.0
2018-Jul-17 11:59N 09°21' W 079°55'1 1.4
2018-Jul-17 11:30N 09°22' W 079°55'3 5.1
2018-Jul-17 11:00N 09°24' W 079°55'3 5.7
2018-Jul-17 10:30N 09°27' W 079°57'1 1.1
2018-Jul-17 10:00N 09°27' W 079°57'0 0.0
2018-Jul-17 09:30N 09°27' W 079°57'0 0.0
2018-Jul-17 09:00N 09°27' W 079°57'0 0.0
2018-Jul-17 08:30N 09°27' W 079°57'0 0.0
2018-Jul-17 08:00N 09°27' W 079°57'0 0.0
2018-Jul-17 07:30N 09°27' W 079°57'0 0.6
2018-Jul-17 06:58N 09°27' W 079°57'0 0.1
2018-Jul-17 06:28N 09°27' W 079°57'0 0.0
2018-Jul-17 05:58N 09°27' W 079°57'0 0.0
2018-Jul-17 05:28N 09°27' W 079°57'0 0.0
2018-Jul-17 04:58N 09°27' W 079°57'0 0.0
2018-Jul-17 04:28N 09°27' W 079°57'0 0.0
2018-Jul-17 03:58N 09°27' W 079°57'0 0.0
2018-Jul-17 03:28N 09°27' W 079°57'0 0.0
2018-Jul-17 02:58N 09°27' W 079°57'0 0.0
2018-Jul-17 02:28N 09°27' W 079°57'0 0.0
2018-Jul-17 01:58N 09°27' W 079°57'0 0.0
2018-Jul-17 01:28N 09°27' W 079°57'0 0.0
2018-Jul-17 00:55N 09°27' W 079°57'0 0.0
2018-Jul-17 00:28N 09°27' W 079°57'0 0.0
2018-Jul-16 23:28N 09°27' W 079°57'0 0.1
2018-Jul-16 22:58N 09°27' W 079°57'0 0.1
2018-Jul-16 22:28N 09°27' W 079°57'0 0.0
2018-Jul-16 21:58N 09°27' W 079°57'0 0.0
2018-Jul-16 21:28N 09°27' W 079°57'0 0.0
2018-Jul-16 20:58N 09°27' W 079°57'0 0.0
2018-Jul-16 20:28N 09°27' W 079°57'0 0.0
2018-Jul-16 19:58N 09°27' W 079°57'0 0.0
2018-Jul-16 19:28N 09°27' W 079°57'0 0.0
2018-Jul-16 18:40N 09°27' W 079°57'0 0.1
2018-Jul-16 18:28N 09°27' W 079°57'0 0.1
2018-Jul-16 17:58N 09°27' W 079°57'0 0.1
2018-Jul-16 17:28N 09°26' W 079°57'0 0.1
2018-Jul-16 16:58N 09°26' W 079°57'0 0.0
2018-Jul-16 16:28N 09°26' W 079°57'0 0.2
2018-Jul-16 15:58N 09°26' W 079°57'0 0.0
2018-Jul-16 15:28N 09°26' W 079°57'0 0.1
2018-Jul-16 14:59N 09°26' W 079°57'2 4.3
2018-Jul-16 14:30N 09°28' W 079°57'  
2018-Jul-10 17:54N 09°36' W 080°01'410.4
2018-Jul-10 17:29N 09°34' W 079°57'5 9.8
2018-Jul-10 17:01N 09°30' W 079°55'510.8
2018-Jul-10 16:31N 09°24' W 079°55'3 6.5
2018-Jul-10 16:00N 09°21' W 079°55'0 0.9
2018-Jul-10 15:30N 09°21' W 079°54'0 0.0
2018-Jul-10 15:00N 09°21' W 079°54'0 0.0
2018-Jul-10 14:30N 09°21' W 079°54'0 0.0
2018-Jul-10 14:00N 09°21' W 079°54'0 0.0
2018-Jul-10 13:30N 09°21' W 079°54'0 0.0
2018-Jul-10 13:00N 09°21' W 079°54'0 0.0
2018-Jul-10 12:30N 09°21' W 079°54'0 0.0
2018-Jul-10 12:00N 09°21' W 079°54'0 0.0
2018-Jul-10 11:30N 09°21' W 079°54'0 0.0
2018-Jul-10 11:00N 09°21' W 079°54'0 0.0
2018-Jul-10 10:30N 09°21' W 079°54'0 0.0
2018-Jul-10 10:00N 09°21' W 079°54'0 0.0
2018-Jul-10 09:30N 09°21' W 079°54'0 0.0
2018-Jul-10 09:00N 09°21' W 079°54'0 0.0
2018-Jul-10 08:30N 09°21' W 079°54'0 0.0
2018-Jul-10 08:00N 09°21' W 079°54'0 0.0
2018-Jul-10 07:30N 09°21' W 079°54'0 0.0
2018-Jul-10 07:00N 09°21' W 079°54'0 0.0
2018-Jul-10 06:27N 09°21' W 079°54'0 0.0
2018-Jul-10 06:00N 09°21' W 079°54'0 0.0
2018-Jul-10 05:30N 09°21' W 079°54'0 0.4
2018-Jul-10 04:59N 09°21' W 079°55'2 3.9
2018-Jul-10 04:31N 09°23' W 079°55'4 9.0
2018-Jul-10 04:01N 09°27' W 079°56'3 4.2
2018-Jul-10 03:16N 09°29' W 079°58'0 0.3
2018-Jul-10 02:21N 09°29' W 079°58'0 0.5
2018-Jul-10 02:00N 09°29' W 079°58'0 0.4
2018-Jul-10 01:30N 09°29' W 079°58'2 1.4
2018-Jul-10 00:09N 09°27' W 079°58'0 1.7
2018-Jul-10 00:00N 09°28' W 079°58'0 1.0
2018-Jul-09 23:30N 09°28' W 079°58'0 0.9
2018-Jul-09 23:01N 09°29' W 079°58'0 0.9
2018-Jul-09 22:30N 09°29' W 079°58'0 1.0
2018-Jul-09 22:01N 09°29' W 079°58'4 6.0
2018-Jul-09 21:19N 09°32' W 080°01'  
Track history (hours):
 
Tides and Currents Weather Stations Pressure Air Temp Water Temp Dewpoint Dewpoint Depression Visibility Wind Speed Wind Dir Waves Ship Positions

MSC Zebra

Last reported at 2018-Jul-18 10:26 UTC. Time now 2018-Jul-20 23:28 UTC.
Position N 09°37' W 080°01'.

Length 210 m; draft 8.3 m.

Type: Cargo ship. MMSI: 229481000.

Date/timePositionNaut miles runAvg speedWind from/ knotsBaromVisibWave heightAir tempDewpointWater temp
2018-Jul-18 10:26N 09°37' W 080°01'4 8.9
2018-Jul-18 09:57N 09°35' W 079°57'4 9.5
2018-Jul-18 09:30N 09°32' W 079°54'510.2
2018-Jul-18 09:00N 09°27' W 079°55'510.2
2018-Jul-18 08:30N 09°22' W 079°55'1 1.8
2018-Jul-18 08:00N 09°21' W 079°55'0 0.0
2018-Jul-18 07:29N 09°21' W 079°55'0 0.0
2018-Jul-18 06:59N 09°21' W 079°55'0 0.0
2018-Jul-18 06:29N 09°21' W 079°55'0 0.0
2018-Jul-18 05:59N 09°21' W 079°55'0 0.0
2018-Jul-18 05:29N 09°21' W 079°55'0 0.0
2018-Jul-18 04:59N 09°21' W 079°55'0 0.0
2018-Jul-18 04:29N 09°21' W 079°55'0 0.0
2018-Jul-18 03:59N 09°21' W 079°55'0 0.0
2018-Jul-18 03:29N 09°21' W 079°55'0 0.0
2018-Jul-18 02:59N 09°21' W 079°55'0 0.0
2018-Jul-18 02:29N 09°21' W 079°55'0 0.0
2018-Jul-18 01:59N 09°21' W 079°55'0 0.0
2018-Jul-18 01:29N 09°21' W 079°55'0 0.0
2018-Jul-18 00:59N 09°21' W 079°55'0 0.0
2018-Jul-18 00:29N 09°21' W 079°55'0 0.0
2018-Jul-17 23:59N 09°21' W 079°55'0 0.0
2018-Jul-17 23:29N 09°21' W 079°55'0 0.0
2018-Jul-17 22:59N 09°21' W 079°55'0 0.0
2018-Jul-17 22:29N 09°21' W 079°55'0 0.0
2018-Jul-17 21:59N 09°21' W 079°55'0 0.0
2018-Jul-17 21:29N 09°21' W 079°55'0 0.0
2018-Jul-17 20:59N 09°21' W 079°55'0 0.0
2018-Jul-17 20:29N 09°21' W 079°55'0 0.0
2018-Jul-17 19:59N 09°21' W 079°55'0 0.0
2018-Jul-17 19:29N 09°21' W 079°55'0 0.0
2018-Jul-17 18:59N 09°21' W 079°55'0 0.0
2018-Jul-17 18:29N 09°21' W 079°55'0 0.0
2018-Jul-17 17:59N 09°21' W 079°55'0 0.0
2018-Jul-17 17:29N 09°21' W 079°55'0 0.0
2018-Jul-17 16:59N 09°21' W 079°55'0 0.0
2018-Jul-17 16:29N 09°21' W 079°55'0 0.0
2018-Jul-17 15:59N 09°21' W 079°55'0 0.0
2018-Jul-17 15:29N 09°21' W 079°55'0 0.0
2018-Jul-17 14:59N 09°21' W 079°55'0 0.0
2018-Jul-17 14:29N 09°21' W 079°55'0 0.0
2018-Jul-17 13:59N 09°21' W 079°55'0 0.0
2018-Jul-17 13:29N 09°21' W 079°55'0 0.0
2018-Jul-17 12:59N 09°21' W 079°55'0 0.0
2018-Jul-17 12:29N 09°21' W 079°55'0 0.0
2018-Jul-17 11:59N 09°21' W 079°55'1 1.4
2018-Jul-17 11:30N 09°22' W 079°55'3 5.1
2018-Jul-17 11:00N 09°24' W 079°55'3 5.7
2018-Jul-17 10:30N 09°27' W 079°57'1 1.1
2018-Jul-17 10:00N 09°27' W 079°57'0 0.0
2018-Jul-17 09:30N 09°27' W 079°57'0 0.0
2018-Jul-17 09:00N 09°27' W 079°57'0 0.0
2018-Jul-17 08:30N 09°27' W 079°57'0 0.0
2018-Jul-17 08:00N 09°27' W 079°57'0 0.0
2018-Jul-17 07:30N 09°27' W 079°57'0 0.6
2018-Jul-17 06:58N 09°27' W 079°57'0 0.1
2018-Jul-17 06:28N 09°27' W 079°57'0 0.0
2018-Jul-17 05:58N 09°27' W 079°57'0 0.0
2018-Jul-17 05:28N 09°27' W 079°57'0 0.0
2018-Jul-17 04:58N 09°27' W 079°57'0 0.0
2018-Jul-17 04:28N 09°27' W 079°57'0 0.0
2018-Jul-17 03:58N 09°27' W 079°57'0 0.0
2018-Jul-17 03:28N 09°27' W 079°57'0 0.0
2018-Jul-17 02:58N 09°27' W 079°57'0 0.0
2018-Jul-17 02:28N 09°27' W 079°57'0 0.0
2018-Jul-17 01:58N 09°27' W 079°57'0 0.0
2018-Jul-17 01:28N 09°27' W 079°57'0 0.0
2018-Jul-17 00:55N 09°27' W 079°57'0 0.0
2018-Jul-17 00:28N 09°27' W 079°57'0 0.0
2018-Jul-16 23:28N 09°27' W 079°57'0 0.1
2018-Jul-16 22:58N 09°27' W 079°57'0 0.1
2018-Jul-16 22:28N 09°27' W 079°57'0 0.0
2018-Jul-16 21:58N 09°27' W 079°57'0 0.0
2018-Jul-16 21:28N 09°27' W 079°57'0 0.0
2018-Jul-16 20:58N 09°27' W 079°57'0 0.0
2018-Jul-16 20:28N 09°27' W 079°57'0 0.0
2018-Jul-16 19:58N 09°27' W 079°57'0 0.0
2018-Jul-16 19:28N 09°27' W 079°57'0 0.0
2018-Jul-16 18:40N 09°27' W 079°57'0 0.1
2018-Jul-16 18:28N 09°27' W 079°57'0 0.1
2018-Jul-16 17:58N 09°27' W 079°57'0 0.1
2018-Jul-16 17:28N 09°26' W 079°57'0 0.1
2018-Jul-16 16:58N 09°26' W 079°57'0 0.0
2018-Jul-16 16:28N 09°26' W 079°57'0 0.2
2018-Jul-16 15:58N 09°26' W 079°57'0 0.0
2018-Jul-16 15:28N 09°26' W 079°57'0 0.1
2018-Jul-16 14:59N 09°26' W 079°57'2 4.3
2018-Jul-16 14:30N 09°28' W 079°57'  
2018-Jul-10 17:54N 09°36' W 080°01'410.4
2018-Jul-10 17:29N 09°34' W 079°57'5 9.8
2018-Jul-10 17:01N 09°30' W 079°55'510.8
2018-Jul-10 16:31N 09°24' W 079°55'3 6.5
2018-Jul-10 16:00N 09°21' W 079°55'0 0.9
2018-Jul-10 15:30N 09°21' W 079°54'0 0.0
2018-Jul-10 15:00N 09°21' W 079°54'0 0.0
2018-Jul-10 14:30N 09°21' W 079°54'0 0.0
2018-Jul-10 14:00N 09°21' W 079°54'0 0.0
2018-Jul-10 13:30N 09°21' W 079°54'0 0.0
2018-Jul-10 13:00N 09°21' W 079°54'0 0.0
2018-Jul-10 12:30N 09°21' W 079°54'0 0.0
2018-Jul-10 12:00N 09°21' W 079°54'0 0.0
2018-Jul-10 11:30N 09°21' W 079°54'0 0.0
2018-Jul-10 11:00N 09°21' W 079°54'0 0.0
2018-Jul-10 10:30N 09°21' W 079°54'0 0.0
2018-Jul-10 10:00N 09°21' W 079°54'0 0.0
2018-Jul-10 09:30N 09°21' W 079°54'0 0.0
2018-Jul-10 09:00N 09°21' W 079°54'0 0.0
2018-Jul-10 08:30N 09°21' W 079°54'0 0.0
2018-Jul-10 08:00N 09°21' W 079°54'0 0.0
2018-Jul-10 07:30N 09°21' W 079°54'0 0.0
2018-Jul-10 07:00N 09°21' W 079°54'0 0.0
2018-Jul-10 06:27N 09°21' W 079°54'0 0.0
2018-Jul-10 06:00N 09°21' W 079°54'0 0.0
2018-Jul-10 05:30N 09°21' W 079°54'0 0.4
2018-Jul-10 04:59N 09°21' W 079°55'2 3.9
2018-Jul-10 04:31N 09°23' W 079°55'4 9.0
2018-Jul-10 04:01N 09°27' W 079°56'3 4.2
2018-Jul-10 03:16N 09°29' W 079°58'0 0.3
2018-Jul-10 02:21N 09°29' W 079°58'0 0.5
2018-Jul-10 02:00N 09°29' W 079°58'0 0.4
2018-Jul-10 01:30N 09°29' W 079°58'2 1.4
2018-Jul-10 00:09N 09°27' W 079°58'0 1.7
2018-Jul-10 00:00N 09°28' W 079°58'0 1.0
2018-Jul-09 23:30N 09°28' W 079°58'0 0.9
2018-Jul-09 23:01N 09°29' W 079°58'0 0.9
2018-Jul-09 22:30N 09°29' W 079°58'0 1.0
2018-Jul-09 22:01N 09°29' W 079°58'4 6.0
2018-Jul-09 21:19N 09°32' W 080°01'  

Dump ship's entire track history